This is the latest recevied weather packets stored in our database for station/object ED4YAZ-13. If no packets are shown the sender has not sent any weather packets the latest 10 day(s).
| Time | Temp. | Humidity | Pressure | Rain* | Wind** | Luminosity | Snow |
|---|---|---|---|---|---|---|---|
| 1777915939 | 23.89° C | 27% | 1008.5 hPa | - | - | - | - |
| 1777915939 | 23.89° C | 27% | 1008.5 hPa | - | - | - | - |
| 1777915339 | 22.22° C | 30% | 1009.2 hPa | - | - | - | - |
| 1777914739 | 25.56° C | 27% | 1008 hPa | - | - | - | - |
| 1777913547 | 25.56° C | 27% | 1008.1 hPa | - | - | - | - |
| 1777912927 | 26.67° C | 26% | 1007.9 hPa | - | - | - | - |
| 1777912327 | 27.22° C | 26% | 1007.3 hPa | - | - | - | - |
| 1777911727 | 21.67° C | 32% | 1010 hPa | - | - | - | - |
| 1777911113 | 25° C | 30% | 1008.3 hPa | - | - | - | - |
| 1777910508 | 27.22° C | 27% | 1007.3 hPa | - | - | - | - |
| 1777909908 | 27.22° C | 30% | 1007.2 hPa | - | - | - | - |
| 1777909300 | 22.22° C | 39% | 1009.4 hPa | - | - | - | - |
| 1777908700 | 23.89° C | 38% | 1008.5 hPa | - | - | - | - |
| 1777908095 | 17.78° C | 49% | 1011.1 hPa | - | - | - | - |
| 1777907489 | 25.56° C | 36% | 1007.8 hPa | - | - | - | - |
| 1777906888 | 19.44° C | 48% | 1010.4 hPa | - | - | - | - |
| 1777906287 | 17.78° C | 49% | 1011 hPa | - | - | - | - |
| 1777905688 | 18.33° C | 52% | 1011 hPa | - | - | - | - |
| 1777905200 | 17.78° C | 51% | 1011.4 hPa | - | - | - | - |
| 1777905082 | 17.78° C | 51% | 1011.4 hPa | - | - | - | - |
| 1777904478 | 18.33° C | 52% | 1011.3 hPa | - | - | - | - |
| 1777903873 | 18.33° C | 53% | 1011.4 hPa | - | - | - | - |
| 1777903261 | 18.89° C | 50% | 1011.4 hPa | - | - | - | - |
| 1777902661 | 16.67° C | 54% | 1012 hPa | - | - | - | - |
| 1777901559 | 17.22° C | 56% | 1012 hPa | - | - | - | - |
* Rain since midnight (hover to see other rain measurements)
** Current wind speed in m/s (hover to see current wind gust speed)